sensor_id;sensor_type;location;lat;lon;timestamp;pressure;altitude;pressure_sealevel;temperature;humidity
46714;BME280;32445;51.376;10.874;2023-08-01T00:02:44;98059.88;;;19.57;59.33
46714;BME280;32445;51.376;10.874;2023-08-01T00:05:45;98044.38;;;19.54;59.68
46714;BME280;32445;51.376;10.874;2023-08-01T00:08:45;98057.53;;;19.54;59.76
46714;BME280;32445;51.376;10.874;2023-08-01T00:11:46;98041.72;;;19.54;59.66
46714;BME280;32445;51.376;10.874;2023-08-01T00:14:46;98042.44;;;19.56;59.16
46714;BME280;32445;51.376;10.874;2023-08-01T00:17:48;98020.81;;;19.52;59.14
46714;BME280;32445;51.376;10.874;2023-08-01T00:20:48;98013.31;;;19.48;59.73
46714;BME280;32445;51.376;10.874;2023-08-01T00:23:48;98009.16;;;19.45;60.19
46714;BME280;32445;51.376;10.874;2023-08-01T00:26:49;97991.47;;;19.47;59.73
46714;BME280;32445;51.376;10.874;2023-08-01T00:29:49;97978.16;;;19.49;59.52
46714;BME280;32445;51.376;10.874;2023-08-01T00:32:49;97974.81;;;19.47;59.87
46714;BME280;32445;51.376;10.874;2023-08-01T00:35:53;97980.94;;;19.47;59.90
46714;BME280;32445;51.376;10.874;2023-08-01T00:38:54;97967.06;;;19.45;60.00
46714;BME280;32445;51.376;10.874;2023-08-01T00:41:54;97953.22;;;19.43;59.91
46714;BME280;32445;51.376;10.874;2023-08-01T00:44:55;97937.69;;;19.40;60.58
46714;BME280;32445;51.376;10.874;2023-08-01T00:47:56;97940.34;;;19.40;59.91
46714;BME280;32445;51.376;10.874;2023-08-01T00:51:01;97933.53;;;19.38;60.35
46714;BME280;32445;51.376;10.874;2023-08-01T00:54:03;97923.97;;;19.36;60.50
46714;BME280;32445;51.376;10.874;2023-08-01T00:57:04;97921.19;;;19.38;60.51
46714;BME280;32445;51.376;10.874;2023-08-01T01:00:05;97913.31;;;19.38;60.73
46714;BME280;32445;51.376;10.874;2023-08-01T01:03:05;97902.66;;;19.40;60.50
46714;BME280;32445;51.376;10.874;2023-08-01T01:06:30;97909.00;;;19.37;60.85
46714;BME280;32445;51.376;10.874;2023-08-01T01:09:32;97914.03;;;19.40;60.22
46714;BME280;32445;51.376;10.874;2023-08-01T01:12:32;97898.38;;;19.39;60.30
46714;BME280;32445;51.376;10.874;2023-08-01T01:15:32;97902.50;;;19.41;60.23
46714;BME280;32445;51.376;10.874;2023-08-01T01:18:33;97886.59;;;19.43;60.59
46714;BME280;32445;51.376;10.874;2023-08-01T01:21:35;97883.13;;;19.42;60.42
46714;BME280;32445;51.376;10.874;2023-08-01T01:24:39;97863.63;;;19.45;60.34
46714;BME280;32445;51.376;10.874;2023-08-01T01:27:40;97862.38;;;19.49;60.30
46714;BME280;32445;51.376;10.874;2023-08-01T01:30:42;97839.38;;;19.51;60.24
46714;BME280;32445;51.376;10.874;2023-08-01T01:33:43;97843.53;;;19.53;59.21
46714;BME280;32445;51.376;10.874;2023-08-01T01:36:43;97841.88;;;19.52;59.55
46714;BME280;32445;51.376;10.874;2023-08-01T01:39:44;97833.16;;;19.52;59.86
46714;BME280;32445;51.376;10.874;2023-08-01T01:42:45;97836.47;;;19.54;59.86
46714;BME280;32445;51.376;10.874;2023-08-01T01:45:45;97821.81;;;19.51;60.23
46714;BME280;32445;51.376;10.874;2023-08-01T01:48:45;97826.22;;;19.51;60.02
46714;BME280;32445;51.376;10.874;2023-08-01T01:51:46;97826.22;;;19.51;60.33
46714;BME280;32445;51.376;10.874;2023-08-01T01:54:46;97823.72;;;19.49;60.47
46714;BME280;32445;51.376;10.874;2023-08-01T01:57:46;97833.16;;;19.52;60.16
46714;BME280;32445;51.376;10.874;2023-08-01T02:00:48;97802.00;;;19.47;60.53
46714;BME280;32445;51.376;10.874;2023-08-01T02:03:49;97814.31;;;19.47;60.72
46714;BME280;32445;51.376;10.874;2023-08-01T02:06:49;97813.34;;;19.48;60.26
46714;BME280;32445;51.376;10.874;2023-08-01T02:09:49;97810.28;;;19.52;59.95
46714;BME280;32445;51.376;10.874;2023-08-01T02:12:50;97797.84;;;19.54;60.18
46714;BME280;32445;51.376;10.874;2023-08-01T02:15:50;97795.06;;;19.56;59.90
46714;BME280;32445;51.376;10.874;2023-08-01T02:18:50;97799.34;;;19.57;60.11
46714;BME280;32445;51.376;10.874;2023-08-01T02:21:51;97796.03;;;19.55;60.20
46714;BME280;32445;51.376;10.874;2023-08-01T02:24:52;97783.69;;;19.56;60.30
46714;BME280;32445;51.376;10.874;2023-08-01T02:27:52;97795.34;;;19.53;60.54
46714;BME280;32445;51.376;10.874;2023-08-01T02:30:52;97785.06;;;19.50;60.30
46714;BME280;32445;51.376;10.874;2023-08-01T02:33:53;97775.69;;;19.47;60.52
46714;BME280;32445;51.376;10.874;2023-08-01T02:36:53;97782.72;;;19.47;60.44
46714;BME280;32445;51.376;10.874;2023-08-01T02:39:53;97768.31;;;19.41;60.97
46714;BME280;32445;51.376;10.874;2023-08-01T02:42:54;97751.84;;;19.39;61.10
46714;BME280;32445;51.376;10.874;2023-08-01T02:45:54;97753.69;;;19.39;61.24
46714;BME280;32445;51.376;10.874;2023-08-01T02:48:54;97752.16;;;19.36;61.09
46714;BME280;32445;51.376;10.874;2023-08-01T02:51:55;97757.41;;;19.36;61.12
46714;BME280;32445;51.376;10.874;2023-08-01T02:54:55;97737.19;;;19.36;61.24
46714;BME280;32445;51.376;10.874;2023-08-01T02:57:55;97736.34;;;19.36;60.74
46714;BME280;32445;51.376;10.874;2023-08-01T03:00:56;97740.78;;;19.35;61.04
46714;BME280;32445;51.376;10.874;2023-08-01T03:03:56;97733.88;;;19.34;61.25
46714;BME280;32445;51.376;10.874;2023-08-01T03:06:56;97732.19;;;19.33;61.29
46714;BME280;32445;51.376;10.874;2023-08-01T03:09:57;97734.97;;;19.32;61.46
46714;BME280;32445;51.376;10.874;2023-08-01T03:12:57;97717.81;;;19.28;61.73
46714;BME280;32445;51.376;10.874;2023-08-01T03:15:57;97728.31;;;19.28;61.85
46714;BME280;32445;51.376;10.874;2023-08-01T03:18:58;97731.09;;;19.26;61.89
46714;BME280;32445;51.376;10.874;2023-08-01T03:22:04;97730.28;;;19.26;61.71
46714;BME280;32445;51.376;10.874;2023-08-01T03:25:05;97730.13;;;19.27;61.87
46714;BME280;32445;51.376;10.874;2023-08-01T03:28:07;97724.72;;;19.29;61.64
46714;BME280;32445;51.376;10.874;2023-08-01T03:31:09;97728.03;;;19.31;61.67
46714;BME280;32445;51.376;10.874;2023-08-01T03:34:09;97729.84;;;19.30;61.59
46714;BME280;32445;51.376;10.874;2023-08-01T03:37:10;97721.09;;;19.30;61.73
46714;BME280;32445;51.376;10.874;2023-08-01T03:40:10;97718.91;;;19.25;61.77
46714;BME280;32445;51.376;10.874;2023-08-01T03:43:10;97711.72;;;19.27;61.61
46714;BME280;32445;51.376;10.874;2023-08-01T03:46:11;97716.69;;;19.30;61.55
46714;BME280;32445;51.376;10.874;2023-08-01T03:49:11;97711.59;;;19.29;61.80
46714;BME280;32445;51.376;10.874;2023-08-01T03:52:11;97707.13;;;19.29;61.77
46714;BME280;32445;51.376;10.874;2023-08-01T03:55:12;97700.91;;;19.30;61.98
46714;BME280;32445;51.376;10.874;2023-08-01T03:58:12;97704.38;;;19.31;61.67
46714;BME280;32445;51.376;10.874;2023-08-01T04:01:12;97693.69;;;19.32;61.34
46714;BME280;32445;51.376;10.874;2023-08-01T04:04:13;97684.44;;;19.28;61.72
46714;BME280;32445;51.376;10.874;2023-08-01T04:07:13;97667.00;;;19.27;61.93
46714;BME280;32445;51.376;10.874;2023-08-01T04:10:13;97659.94;;;19.28;61.96
46714;BME280;32445;51.376;10.874;2023-08-01T04:13:14;97653.72;;;19.29;61.79
46714;BME280;32445;51.376;10.874;2023-08-01T04:16:14;97660.50;;;19.31;61.47
46714;BME280;32445;51.376;10.874;2023-08-01T04:19:14;97636.69;;;19.33;61.49
46714;BME280;32445;51.376;10.874;2023-08-01T04:22:15;97629.75;;;19.32;61.57
46714;BME280;32445;51.376;10.874;2023-08-01T04:25:16;97628.22;;;19.29;61.76
46714;BME280;32445;51.376;10.874;2023-08-01T04:28:16;97620.47;;;19.28;61.61
46714;BME280;32445;51.376;10.874;2023-08-01T04:31:16;97621.16;;;19.30;61.66
46714;BME280;32445;51.376;10.874;2023-08-01T04:34:17;97612.72;;;19.26;62.14
46714;BME280;32445;51.376;10.874;2023-08-01T04:37:17;97606.50;;;19.27;62.00
46714;BME280;32445;51.376;10.874;2023-08-01T04:40:20;97636.13;;;19.29;62.06
46714;BME280;32445;51.376;10.874;2023-08-01T04:43:21;97645.41;;;19.24;62.46
46714;BME280;32445;51.376;10.874;2023-08-01T04:46:21;97651.91;;;19.19;62.82
46714;BME280;32445;51.376;10.874;2023-08-01T04:49:21;97655.38;;;19.20;62.52
46714;BME280;32445;51.376;10.874;2023-08-01T04:52:22;97655.38;;;19.20;62.59
46714;BME280;32445;51.376;10.874;2023-08-01T04:55:22;97641.38;;;19.19;62.23
46714;BME280;32445;51.376;10.874;2023-08-01T04:58:23;97617.44;;;19.23;62.41
46714;BME280;32445;51.376;10.874;2023-08-01T05:01:23;97596.38;;;19.23;62.25
46714;BME280;32445;51.376;10.874;2023-08-01T05:04:24;97571.75;;;19.24;62.53
46714;BME280;32445;51.376;10.874;2023-08-01T05:07:24;97597.63;;;19.28;62.05
46714;BME280;32445;51.376;10.874;2023-08-01T05:10:25;97613.16;;;19.31;61.91
46714;BME280;32445;51.376;10.874;2023-08-01T05:13:25;97619.09;;;19.33;62.18
46714;BME280;32445;51.376;10.874;2023-08-01T05:16:25;97630.56;;;19.32;62.34
46714;BME280;32445;51.376;10.874;2023-08-01T05:19:26;97631.56;;;19.31;62.37
46714;BME280;32445;51.376;10.874;2023-08-01T05:22:26;97634.31;;;19.30;62.57
46714;BME280;32445;51.376;10.874;2023-08-01T05:25:27;97620.03;;;19.32;62.23
46714;BME280;32445;51.376;10.874;2023-08-01T05:28:27;97613.69;;;19.35;61.89
46714;BME280;32445;51.376;10.874;2023-08-01T05:31:27;97614.50;;;19.35;62.01
46714;BME280;32445;51.376;10.874;2023-08-01T05:34:27;97621.13;;;19.40;61.89
46714;BME280;32445;51.376;10.874;2023-08-01T05:37:28;97631.38;;;19.43;61.61
46714;BME280;32445;51.376;10.874;2023-08-01T05:40:28;97641.06;;;19.42;61.99
46714;BME280;32445;51.376;10.874;2023-08-01T05:43:28;97644.66;;;19.41;62.02
46714;BME280;32445;51.376;10.874;2023-08-01T05:46:29;97641.22;;;19.41;61.90
46714;BME280;32445;51.376;10.874;2023-08-01T05:49:29;97631.66;;;19.40;61.81
46714;BME280;32445;51.376;10.874;2023-08-01T05:52:30;97626.97;;;19.43;61.61
46714;BME280;32445;51.376;10.874;2023-08-01T05:55:30;97625.84;;;19.46;61.65
46714;BME280;32445;51.376;10.874;2023-08-01T05:58:30;97624.72;;;19.48;61.69
46714;BME280;32445;51.376;10.874;2023-08-01T06:01:31;97607.00;;;19.50;61.00
46714;BME280;32445;51.376;10.874;2023-08-01T06:04:31;97622.78;;;19.50;61.03
46714;BME280;32445;51.376;10.874;2023-08-01T06:07:32;97648.25;;;19.50;61.01
46714;BME280;32445;51.376;10.874;2023-08-01T06:10:32;97622.22;;;19.47;60.93
46714;BME280;32445;51.376;10.874;2023-08-01T06:13:33;97576.13;;;19.43;61.30
46714;BME280;32445;51.376;10.874;2023-08-01T06:16:33;97592.06;;;19.41;61.38
46714;BME280;32445;51.376;10.874;2023-08-01T06:19:33;97568.53;;;19.40;61.14
46714;BME280;32445;51.376;10.874;2023-08-01T06:22:34;97600.66;;;19.43;61.19
46714;BME280;32445;51.376;10.874;2023-08-01T06:25:34;97594.28;;;19.46;61.03
46714;BME280;32445;51.376;10.874;2023-08-01T06:28:34;97609.91;;;19.47;60.93
46714;BME280;32445;51.376;10.874;2023-08-01T06:31:35;97598.25;;;19.50;60.87
46714;BME280;32445;51.376;10.874;2023-08-01T06:34:35;97600.34;;;19.46;61.30
46714;BME280;32445;51.376;10.874;2023-08-01T06:37:36;97601.47;;;19.44;61.26
46714;BME280;32445;51.376;10.874;2023-08-01T06:40:36;97585.31;;;19.39;61.40
46714;BME280;32445;51.376;10.874;2023-08-01T06:43:36;97584.75;;;19.35;61.66
46714;BME280;32445;51.376;10.874;2023-08-01T06:46:38;97585.41;;;19.37;61.37
46714;BME280;32445;51.376;10.874;2023-08-01T06:49:38;97569.63;;;19.37;61.08
46714;BME280;32445;51.376;10.874;2023-08-01T06:52:39;97569.63;;;19.37;61.39
46714;BME280;32445;51.376;10.874;2023-08-01T06:55:39;97579.75;;;19.42;61.69
46714;BME280;32445;51.376;10.874;2023-08-01T06:58:39;97573.38;;;19.44;61.61
46714;BME280;32445;51.376;10.874;2023-08-01T07:01:41;97583.59;;;19.47;61.35
46714;BME280;32445;51.376;10.874;2023-08-01T07:04:43;97582.34;;;19.51;61.12
46714;BME280;32445;51.376;10.874;2023-08-01T07:07:43;97567.91;;;19.56;61.06
46714;BME280;32445;51.376;10.874;2023-08-01T07:10:45;97580.66;;;19.60;60.62
46714;BME280;32445;51.376;10.874;2023-08-01T07:13:45;97574.13;;;19.64;60.72
46714;BME280;32445;51.376;10.874;2023-08-01T07:16:46;97573.84;;;19.67;60.75
46714;BME280;32445;51.376;10.874;2023-08-01T07:19:46;97584.75;;;19.73;60.79
46714;BME280;32445;51.376;10.874;2023-08-01T07:22:46;97576.56;;;19.76;60.66
46714;BME280;32445;51.376;10.874;2023-08-01T07:25:47;97577.94;;;19.80;60.73
46714;BME280;32445;51.376;10.874;2023-08-01T07:28:47;97596.94;;;19.83;60.52
46714;BME280;32445;51.376;10.874;2023-08-01T07:31:47;97579.75;;;19.79;60.64
46714;BME280;32445;51.376;10.874;2023-08-01T07:34:48;97608.84;;;19.78;60.83
46714;BME280;32445;51.376;10.874;2023-08-01T07:37:48;97616.03;;;19.76;61.07
46714;BME280;32445;51.376;10.874;2023-08-01T07:40:49;97626.56;;;19.76;61.21
46714;BME280;32445;51.376;10.874;2023-08-01T07:43:49;97627.72;;;19.73;60.86
46714;BME280;32445;51.376;10.874;2023-08-01T07:46:50;97620.22;;;19.68;61.23
46714;BME280;32445;51.376;10.874;2023-08-01T07:49:52;97627.28;;;19.68;61.12
46714;BME280;32445;51.376;10.874;2023-08-01T07:52:52;97644.59;;;19.70;61.19
46714;BME280;32445;51.376;10.874;2023-08-01T07:55:52;97641.13;;;19.70;60.96
46714;BME280;32445;51.376;10.874;2023-08-01T07:58:53;97639.34;;;19.70;61.13
46714;BME280;32445;51.376;10.874;2023-08-01T08:01:54;97649.72;;;19.72;61.07
46714;BME280;32445;51.376;10.874;2023-08-01T08:04:54;97655.97;;;19.71;60.72
46714;BME280;32445;51.376;10.874;2023-08-01T08:07:54;97660.78;;;19.76;60.90
46714;BME280;32445;51.376;10.874;2023-08-01T08:10:55;97647.25;;;19.70;60.94
46714;BME280;32445;51.376;10.874;2023-08-01T08:13:55;97657.63;;;19.72;60.74
46714;BME280;32445;51.376;10.874;2023-08-01T08:16:56;97663.56;;;19.74;60.66
46714;BME280;32445;51.376;10.874;2023-08-01T08:19:56;97649.59;;;19.74;60.75
46714;BME280;32445;51.376;10.874;2023-08-01T08:22:57;97661.63;;;19.76;60.77
46714;BME280;32445;51.376;10.874;2023-08-01T08:25:57;97664.69;;;19.81;60.70
46714;BME280;32445;51.376;10.874;2023-08-01T08:28:58;97658.31;;;19.84;60.81
46714;BME280;32445;51.376;10.874;2023-08-01T08:31:58;97665.38;;;19.83;60.74
46714;BME280;32445;51.376;10.874;2023-08-01T08:34:59;97661.63;;;19.86;60.46
46714;BME280;32445;51.376;10.874;2023-08-01T08:38:01;97658.16;;;19.85;60.02
46714;BME280;32445;51.376;10.874;2023-08-01T08:44:10;97654.97;;;19.92;59.71
46714;BME280;32445;51.376;10.874;2023-08-01T08:47:15;97655.34;;;19.97;59.74
46714;BME280;32445;51.376;10.874;2023-08-01T08:50:16;97653.50;;;20.07;59.58
46714;BME280;32445;51.376;10.874;2023-08-01T08:53:17;97659.00;;;20.14;59.46
46714;BME280;32445;51.376;10.874;2023-08-01T08:56:18;97675.50;;;20.16;58.95
46714;BME280;32445;51.376;10.874;2023-08-01T08:59:19;97680.19;;;20.22;58.86
46714;BME280;32445;51.376;10.874;2023-08-01T09:02:20;97681.56;;;20.26;58.62
46714;BME280;32445;51.376;10.874;2023-08-01T09:05:27;97687.94;;;20.23;58.26
46714;BME280;32445;51.376;10.874;2023-08-01T09:08:29;97697.38;;;20.26;58.20
46714;BME280;32445;51.376;10.874;2023-08-01T09:11:58;97692.53;;;20.21;57.63
46714;BME280;32445;51.376;10.874;2023-08-01T09:14:59;97701.13;;;20.23;57.33
46714;BME280;32445;51.376;10.874;2023-08-01T09:17:59;97699.31;;;20.24;57.32
46714;BME280;32445;51.376;10.874;2023-08-01T09:21:02;97699.47;;;20.22;57.53
46714;BME280;32445;51.376;10.874;2023-08-01T09:24:16;97704.44;;;20.26;57.42
46714;BME280;32445;51.376;10.874;2023-08-01T09:27:16;97700.09;;;20.34;57.34
46714;BME280;32445;51.376;10.874;2023-08-01T09:30:16;97710.59;;;20.44;56.90
46714;BME280;32445;51.376;10.874;2023-08-01T09:33:18;97709.47;;;20.47;56.65
46714;BME280;32445;51.376;10.874;2023-08-01T09:36:22;97711.81;;;20.50;56.19
46714;BME280;32445;51.376;10.874;2023-08-01T09:39:23;97717.63;;;20.53;56.06
46714;BME280;32445;51.376;10.874;2023-08-01T09:42:24;97720.94;;;20.55;56.02
46714;BME280;32445;51.376;10.874;2023-08-01T09:45:24;97722.16;;;20.61;55.95
46714;BME280;32445;51.376;10.874;2023-08-01T09:48:29;97728.38;;;20.70;55.78
46714;BME280;32445;51.376;10.874;2023-08-01T09:51:30;97722.66;;;20.74;55.34
46714;BME280;32445;51.376;10.874;2023-08-01T09:54:30;97731.56;;;20.73;55.10
46714;BME280;32445;51.376;10.874;2023-08-01T09:57:31;97722.94;;;20.71;54.60
46714;BME280;32445;51.376;10.874;2023-08-01T10:00:32;97726.28;;;20.73;54.78
46714;BME280;32445;51.376;10.874;2023-08-01T10:03:32;97724.00;;;20.79;54.38
46714;BME280;32445;51.376;10.874;2023-08-01T10:06:34;97735.47;;;20.87;53.93
46714;BME280;32445;51.376;10.874;2023-08-01T10:09:35;97735.72;;;20.94;53.80
46714;BME280;32445;51.376;10.874;2023-08-01T10:12:37;97743.16;;;20.99;53.01
46714;BME280;32445;51.376;10.874;2023-08-01T10:15:38;97737.09;;;20.98;52.82
46714;BME280;32445;51.376;10.874;2023-08-01T10:18:40;97736.78;;;21.01;52.47
46714;BME280;32445;51.376;10.874;2023-08-01T10:21:44;97733.53;;;21.07;52.31
46714;BME280;32445;51.376;10.874;2023-08-01T10:24:45;97748.94;;;21.12;52.79
46714;BME280;32445;51.376;10.874;2023-08-01T10:28:03;97754.09;;;21.22;52.73
46714;BME280;32445;51.376;10.874;2023-08-01T10:31:15;97736.09;;;21.35;52.69
46714;BME280;32445;51.376;10.874;2023-08-01T10:34:15;97734.31;;;21.54;52.47
46714;BME280;32445;51.376;10.874;2023-08-01T10:37:16;97738.56;;;21.73;51.48
46714;BME280;32445;51.376;10.874;2023-08-01T10:40:17;97739.81;;;21.87;51.11
46714;BME280;32445;51.376;10.874;2023-08-01T10:43:24;97745.28;;;21.93;50.83
46714;BME280;32445;51.376;10.874;2023-08-01T10:46:25;97752.78;;;21.98;50.42
46714;BME280;32445;51.376;10.874;2023-08-01T10:49:40;97746.66;;;21.98;50.22
46714;BME280;32445;51.376;10.874;2023-08-01T10:52:43;97746.31;;;22.01;50.84
46714;BME280;32445;51.376;10.874;2023-08-01T10:55:46;97751.72;;;22.17;50.74
46714;BME280;32445;51.376;10.874;2023-08-01T10:58:57;97738.31;;;22.37;49.62
46714;BME280;32445;51.376;10.874;2023-08-01T11:01:58;97758.53;;;22.54;49.14
46714;BME280;32445;51.376;10.874;2023-08-01T11:05:05;97741.53;;;22.65;48.65
46714;BME280;32445;51.376;10.874;2023-08-01T11:08:06;97733.69;;;22.81;48.61
46714;BME280;32445;51.376;10.874;2023-08-01T11:11:09;97737.03;;;23.00;47.85
46714;BME280;32445;51.376;10.874;2023-08-01T11:14:11;97728.66;;;23.21;46.41
46714;BME280;32445;51.376;10.874;2023-08-01T11:17:13;97722.03;;;23.33;45.72
46714;BME280;32445;51.376;10.874;2023-08-01T11:20:14;97742.06;;;23.44;45.72
46714;BME280;32445;51.376;10.874;2023-08-01T11:23:14;97733.44;;;23.50;45.65
46714;BME280;32445;51.376;10.874;2023-08-01T11:26:15;97733.78;;;23.56;45.54
46714;BME280;32445;51.376;10.874;2023-08-01T11:29:16;97736.09;;;23.59;44.44
46714;BME280;32445;51.376;10.874;2023-08-01T11:32:16;97742.56;;;23.56;44.59
46714;BME280;32445;51.376;10.874;2023-08-01T11:35:17;97731.28;;;23.62;44.55
46714;BME280;32445;51.376;10.874;2023-08-01T11:38:18;97735.59;;;23.72;44.80
46714;BME280;32445;51.376;10.874;2023-08-01T11:41:18;97737.91;;;23.83;44.89
46714;BME280;32445;51.376;10.874;2023-08-01T11:44:23;97734.06;;;23.85;44.49
46714;BME280;32445;51.376;10.874;2023-08-01T11:47:24;97734.09;;;23.94;43.82
46714;BME280;32445;51.376;10.874;2023-08-01T11:50:25;97727.94;;;24.10;44.29
46714;BME280;32445;51.376;10.874;2023-08-01T11:53:26;97735.31;;;24.31;43.33
46714;BME280;32445;51.376;10.874;2023-08-01T11:56:28;97735.44;;;24.46;41.78
46714;BME280;32445;51.376;10.874;2023-08-01T11:59:29;97754.13;;;24.52;42.27
46714;BME280;32445;51.376;10.874;2023-08-01T12:02:29;97768.06;;;24.55;42.07
46714;BME280;32445;51.376;10.874;2023-08-01T12:05:30;97771.72;;;24.53;42.15
46714;BME280;32445;51.376;10.874;2023-08-01T12:08:31;97769.69;;;24.56;41.91
46714;BME280;32445;51.376;10.874;2023-08-01T12:11:34;97774.38;;;24.53;42.10
46714;BME280;32445;51.376;10.874;2023-08-01T12:14:41;97779.16;;;24.50;42.25
46714;BME280;32445;51.376;10.874;2023-08-01T12:17:41;97780.19;;;24.49;42.34
46714;BME280;32445;51.376;10.874;2023-08-01T12:20:42;97779.22;;;24.42;42.40
46714;BME280;32445;51.376;10.874;2023-08-01T12:23:42;97784.19;;;24.36;42.65
46714;BME280;32445;51.376;10.874;2023-08-01T12:26:42;97787.53;;;24.39;43.13
46714;BME280;32445;51.376;10.874;2023-08-01T12:29:43;97783.72;;;24.33;43.59
46714;BME280;32445;51.376;10.874;2023-08-01T12:32:43;97790.72;;;24.17;44.63
46714;BME280;32445;51.376;10.874;2023-08-01T12:35:43;97793.53;;;24.16;44.88
46714;BME280;32445;51.376;10.874;2023-08-01T12:38:44;97783.56;;;24.18;44.67
46714;BME280;32445;51.376;10.874;2023-08-01T12:41:44;97782.88;;;24.24;45.04
46714;BME280;32445;51.376;10.874;2023-08-01T12:44:44;97773.41;;;24.38;45.12
46714;BME280;32445;51.376;10.874;2023-08-01T12:47:46;97785.78;;;24.70;44.59
46714;BME280;32445;51.376;10.874;2023-08-01T12:50:46;97779.97;;;24.98;44.30
46714;BME280;32445;51.376;10.874;2023-08-01T12:53:48;97781.13;;;25.35;43.82
46714;BME280;32445;51.376;10.874;2023-08-01T12:56:48;97785.72;;;25.42;42.22
46714;BME280;32445;51.376;10.874;2023-08-01T12:59:49;97790.22;;;25.41;40.89
46714;BME280;32445;51.376;10.874;2023-08-01T13:02:49;97788.28;;;25.35;41.29
46714;BME280;32445;51.376;10.874;2023-08-01T13:05:50;97789.03;;;25.44;41.48
46714;BME280;32445;51.376;10.874;2023-08-01T13:08:52;97795.16;;;25.44;40.13
46714;BME280;32445;51.376;10.874;2023-08-01T13:11:53;97792.50;;;25.44;40.28
46714;BME280;32445;51.376;10.874;2023-08-01T13:14:53;97799.00;;;25.42;40.61
46714;BME280;32445;51.376;10.874;2023-08-01T13:17:54;97788.47;;;25.25;40.63
46714;BME280;32445;51.376;10.874;2023-08-01T13:20:56;97807.41;;;25.22;40.98
46714;BME280;32445;51.376;10.874;2023-08-01T13:23:57;97802.94;;;25.14;41.46
46714;BME280;32445;51.376;10.874;2023-08-01T13:26:58;97803.13;;;25.13;41.97
46714;BME280;32445;51.376;10.874;2023-08-01T13:29:58;97813.75;;;25.13;42.42
46714;BME280;32445;51.376;10.874;2023-08-01T13:32:59;97814.47;;;25.07;42.08
46714;BME280;32445;51.376;10.874;2023-08-01T13:36:00;97807.19;;;25.00;42.78
46714;BME280;32445;51.376;10.874;2023-08-01T13:39:00;97811.38;;;24.95;42.75
46714;BME280;32445;51.376;10.874;2023-08-01T13:42:00;97822.00;;;24.86;42.70
46714;BME280;32445;51.376;10.874;2023-08-01T13:45:01;97821.59;;;24.66;42.40
46714;BME280;32445;51.376;10.874;2023-08-01T13:48:01;97817.63;;;24.54;42.40
46714;BME280;32445;51.376;10.874;2023-08-01T13:51:02;97817.31;;;24.49;43.14
46714;BME280;32445;51.376;10.874;2023-08-01T13:54:02;97814.50;;;24.50;43.63
46714;BME280;32445;51.376;10.874;2023-08-01T13:57:03;97823.59;;;24.56;43.02
46714;BME280;32445;51.376;10.874;2023-08-01T14:00:03;97828.56;;;24.59;42.98
46714;BME280;32445;51.376;10.874;2023-08-01T14:03:04;97831.06;;;24.61;42.84
46714;BME280;32445;51.376;10.874;2023-08-01T14:09:05;97829.53;;;24.58;43.40
46714;BME280;32445;51.376;10.874;2023-08-01T14:12:06;97843.66;;;24.59;43.95
46714;BME280;32445;51.376;10.874;2023-08-01T14:15:08;97837.38;;;24.43;43.39
46714;BME280;32445;51.376;10.874;2023-08-01T14:18:08;97842.38;;;24.30;43.61
46714;BME280;32445;51.376;10.874;2023-08-01T14:21:09;97841.56;;;24.21;43.54
46714;BME280;32445;51.376;10.874;2023-08-01T14:24:10;97851.00;;;24.15;44.03
46714;BME280;32445;51.376;10.874;2023-08-01T14:27:10;97850.34;;;24.13;44.29
46714;BME280;32445;51.376;10.874;2023-08-01T14:30:10;97847.19;;;24.18;44.49
46714;BME280;32445;51.376;10.874;2023-08-01T14:33:11;97858.44;;;24.36;44.09
46714;BME280;32445;51.376;10.874;2023-08-01T14:36:12;97864.38;;;24.47;43.39
46714;BME280;32445;51.376;10.874;2023-08-01T14:39:12;97864.88;;;24.50;42.75
46714;BME280;32445;51.376;10.874;2023-08-01T14:42:12;97874.34;;;24.45;42.36
46714;BME280;32445;51.376;10.874;2023-08-01T14:45:13;97887.44;;;24.38;42.35
46714;BME280;32445;51.376;10.874;2023-08-01T14:48:14;97896.75;;;24.26;41.79
46714;BME280;32445;51.376;10.874;2023-08-01T14:51:14;97899.22;;;24.11;41.52
46714;BME280;32445;51.376;10.874;2023-08-01T14:54:15;97896.91;;;23.99;42.39
46714;BME280;32445;51.376;10.874;2023-08-01T14:57:15;97908.34;;;23.92;42.99
46714;BME280;32445;51.376;10.874;2023-08-01T15:00:16;97911.09;;;23.82;43.36
46714;BME280;32445;51.376;10.874;2023-08-01T15:03:16;97902.50;;;23.80;43.65
46714;BME280;32445;51.376;10.874;2023-08-01T15:06:16;97900.81;;;23.71;43.72
46714;BME280;32445;51.376;10.874;2023-08-01T15:09:17;97919.50;;;23.61;44.19
46714;BME280;32445;51.376;10.874;2023-08-01T15:12:20;97919.78;;;23.49;44.38
46714;BME280;32445;51.376;10.874;2023-08-01T15:15:26;97903.41;;;23.46;44.63
46714;BME280;32445;51.376;10.874;2023-08-01T15:18:27;97908.88;;;23.44;45.36
46714;BME280;32445;51.376;10.874;2023-08-01T15:21:27;97928.06;;;23.46;45.86
46714;BME280;32445;51.376;10.874;2023-08-01T15:24:30;97919.31;;;23.46;46.06
46714;BME280;32445;51.376;10.874;2023-08-01T15:27:31;97916.66;;;23.46;46.56
46714;BME280;32445;51.376;10.874;2023-08-01T15:30:31;97912.69;;;23.50;46.19
46714;BME280;32445;51.376;10.874;2023-08-01T15:33:33;97912.88;;;23.65;46.30
46714;BME280;32445;51.376;10.874;2023-08-01T15:36:34;97915.25;;;23.84;45.71
46714;BME280;32445;51.376;10.874;2023-08-01T15:39:35;97908.47;;;23.98;45.33
46714;BME280;32445;51.376;10.874;2023-08-01T15:42:35;97903.69;;;24.10;44.18
46714;BME280;32445;51.376;10.874;2023-08-01T15:45:35;97916.13;;;24.18;43.42
46714;BME280;32445;51.376;10.874;2023-08-01T15:48:36;97920.91;;;24.23;43.15
46714;BME280;32445;51.376;10.874;2023-08-01T15:51:37;97908.16;;;24.26;43.41
46714;BME280;32445;51.376;10.874;2023-08-01T15:54:37;97909.16;;;24.42;43.01